createdAt,value
2022-08-18T00:04:03.839Z,26.58
2022-08-18T00:09:26.777Z,25.92
2022-08-18T00:14:34.890Z,24.88
2022-08-18T00:19:46.746Z,28.60
2022-08-18T00:24:53.635Z,28.77
2022-08-18T00:30:00.122Z,26.63
2022-08-18T00:35:09.952Z,33.23
2022-08-18T00:40:15.230Z,31.90
2022-08-18T00:45:22.724Z,27.17
2022-08-18T00:50:34.452Z,26.33
2022-08-18T00:55:39.842Z,26.75
2022-08-18T01:00:52.858Z,33.70
2022-08-18T01:06:00.900Z,32.58
2022-08-18T01:11:04.213Z,31.55
2022-08-18T01:16:23.265Z,28.45
2022-08-18T01:21:48.182Z,34.28
2022-08-18T01:26:52.651Z,30.60
2022-08-18T01:31:56.381Z,33.05
2022-08-18T01:36:59.949Z,35.22
2022-08-18T01:42:04.655Z,39.75
2022-08-18T01:47:07.557Z,39.50
2022-08-18T01:52:10.890Z,43.45
2022-08-18T01:57:15.568Z,48.30
2022-08-18T02:02:24.467Z,38.55
2022-08-18T02:07:34.270Z,46.17
2022-08-18T02:12:41.386Z,52.35
2022-08-18T02:17:46.605Z,42.78
2022-08-18T02:22:50.053Z,50.72
2022-08-18T02:27:54.166Z,60.00
2022-08-18T02:32:59.128Z,52.58
2022-08-18T02:38:02.304Z,55.15
2022-08-18T02:43:10.783Z,50.83
2022-08-18T02:48:13.792Z,46.17
2022-08-18T02:53:22.034Z,53.35
2022-08-18T02:58:30.437Z,55.05
2022-08-18T03:03:36.180Z,50.78
2022-08-18T03:08:38.948Z,50.33
2022-08-18T03:13:43.112Z,57.22
2022-08-18T03:18:47.054Z,50.20
2022-08-18T03:24:01.618Z,56.45
2022-08-18T03:29:06.919Z,51.78
2022-08-18T03:34:09.770Z,52.08
2022-08-18T03:39:14.205Z,51.05
2022-08-18T03:44:18.635Z,55.90
2022-08-18T03:49:21.792Z,60.85
2022-08-18T03:54:24.658Z,57.45
2022-08-18T03:59:31.689Z,53.42
2022-08-18T04:04:35.079Z,62.15
2022-08-18T04:09:40.157Z,55.90
2022-08-18T04:14:47.708Z,55.20
2022-08-18T04:19:51.188Z,61.25
2022-08-18T04:24:55.544Z,61.22
2022-08-18T04:29:59.739Z,64.43
2022-08-18T04:35:03.169Z,66.03
2022-08-18T04:40:07.434Z,64.18
2022-08-18T04:45:12.901Z,64.97
2022-08-18T04:50:15.709Z,71.65
2022-08-18T04:55:18.470Z,70.30
2022-08-18T05:00:23.135Z,66.60
2022-08-18T05:05:27.512Z,70.35
2022-08-18T05:10:30.309Z,63.60
2022-08-18T05:15:52.751Z,72.32
2022-08-18T05:20:57.888Z,64.85
2022-08-18T05:26:03.938Z,63.30
2022-08-18T05:31:14.064Z,68.18
2022-08-18T05:36:46.569Z,65.60
2022-08-18T05:41:52.982Z,71.28
2022-08-18T05:47:00.541Z,69.07
2022-08-18T05:52:07.303Z,66.00
2022-08-18T05:57:15.770Z,65.03
2022-08-18T06:02:33.739Z,71.22
2022-08-18T06:07:41.425Z,72.07
2022-08-18T06:12:47.568Z,74.25
2022-08-18T06:18:21.792Z,79.50
2022-08-18T06:23:32.757Z,71.72
2022-08-18T06:28:46.317Z,75.82
2022-08-18T06:34:02.110Z,74.93
2022-08-18T06:39:12.746Z,82.07
2022-08-18T06:44:22.764Z,96.72
2022-08-18T06:49:37.154Z,88.65
2022-08-18T06:54:47.878Z,105.75
2022-08-18T07:00:01.068Z,80.63
2022-08-18T07:05:08.982Z,71.97
2022-08-18T07:10:32.723Z,74.72
2022-08-18T07:15:35.764Z,82.35
2022-08-18T07:20:46.935Z,95.80
2022-08-18T07:25:54.012Z,79.68
2022-08-18T07:36:26.860Z,85.18
2022-08-18T07:41:35.948Z,82.00
2022-08-18T07:46:47.185Z,80.80
2022-08-18T07:51:57.731Z,82.63
2022-08-18T07:57:07.429Z,77.22
2022-08-18T08:02:27.023Z,80.75
2022-08-18T08:07:37.710Z,84.47
2022-08-18T08:12:48.308Z,82.57
2022-08-18T08:18:00.390Z,97.80
2022-08-18T08:23:17.704Z,76.55
2022-08-18T08:28:31.497Z,84.43
2022-08-18T08:33:39.150Z,75.78
2022-08-18T08:38:48.654Z,92.25
2022-08-18T08:44:11.152Z,79.20
2022-08-18T08:49:26.589Z,83.03
2022-08-18T08:54:41.275Z,85.28
2022-08-18T08:59:47.058Z,83.78
2022-08-18T09:05:07.963Z,85.82
2022-08-18T09:10:45.469Z,92.32
2022-08-18T09:16:13.775Z,90.57
2022-08-18T09:21:30.860Z,94.95
2022-08-18T09:32:30.663Z,105.28
2022-08-18T09:37:45.688Z,86.72
2022-08-18T09:42:58.904Z,71.00
2022-08-18T09:48:25.557Z,91.82
2022-08-18T09:54:11.978Z,79.82
2022-08-18T10:00:00.260Z,80.90
2022-08-18T10:05:27.873Z,75.13
2022-08-18T10:10:59.216Z,74.32
2022-08-18T10:16:16.717Z,81.28
2022-08-18T10:27:09.841Z,73.75
2022-08-18T10:32:39.417Z,72.57
2022-08-18T10:37:49.184Z,78.65
2022-08-18T10:43:26.975Z,70.30
2022-08-18T10:48:34.418Z,71.57
2022-08-18T10:53:46.260Z,70.47
2022-08-18T10:59:17.159Z,63.10
2022-08-18T11:04:33.967Z,58.58
2022-08-18T11:09:41.971Z,62.97
2022-08-18T11:15:22.376Z,56.10
2022-08-18T11:20:32.287Z,51.08
2022-08-18T11:25:38.218Z,51.75
2022-08-18T11:30:44.765Z,58.07
2022-08-18T11:35:53.958Z,59.60
2022-08-18T11:41:14.184Z,57.58
2022-08-18T11:52:03.204Z,59.85
2022-08-18T11:57:29.512Z,56.05
2022-08-18T12:02:32.364Z,53.43
2022-08-18T12:07:37.570Z,58.35
2022-08-18T12:12:46.874Z,57.25
2022-08-18T12:17:54.030Z,59.30
2022-08-18T12:22:58.261Z,54.55
2022-08-18T12:28:01.060Z,55.10
2022-08-18T12:33:10.110Z,61.22
2022-08-18T12:38:17.656Z,61.85
2022-08-18T12:43:21.337Z,62.53
2022-08-18T12:48:24.431Z,56.35
2022-08-18T12:53:55.728Z,60.67
2022-08-18T12:58:54.080Z,56.58
2022-08-18T13:09:48.057Z,33.20
2022-08-18T13:14:47.402Z,33.88
2022-08-18T13:19:50.329Z,34.47
2022-08-18T13:24:54.568Z,43.88
2022-08-18T13:29:57.286Z,30.80
2022-08-18T13:35:00.087Z,27.42
2022-08-18T13:40:07.946Z,26.25
2022-08-18T13:45:25.027Z,25.95
2022-08-18T13:50:29.918Z,27.50
2022-08-18T13:55:34.251Z,33.30
2022-08-18T14:05:51.392Z,30.17
2022-08-18T14:11:00.574Z,25.25
2022-08-18T14:16:03.365Z,22.38
2022-08-18T14:21:23.734Z,27.98
2022-08-18T14:26:45.353Z,37.00
2022-08-18T14:31:48.881Z,25.02
2022-08-18T14:36:55.138Z,29.13
2022-08-18T14:41:59.660Z,21.77
2022-08-18T14:47:06.301Z,25.02
2022-08-18T14:52:13.900Z,16.77
2022-08-18T14:57:18.663Z,16.38
2022-08-18T15:02:28.601Z,17.85
2022-08-18T15:07:32.726Z,16.08
2022-08-18T15:12:37.293Z,16.83
2022-08-18T15:17:41.563Z,18.42
2022-08-18T15:23:04.850Z,23.02
2022-08-18T15:28:16.162Z,19.63
2022-08-18T15:33:24.442Z,19.30
2022-08-18T15:38:28.603Z,16.33
2022-08-18T15:43:33.842Z,20.02
2022-08-18T15:48:36.662Z,23.52
2022-08-18T15:53:44.457Z,23.00
2022-08-18T15:58:49.468Z,20.30
2022-08-18T16:03:55.008Z,20.90
2022-08-18T16:08:57.957Z,23.65
2022-08-18T16:14:02.022Z,23.60
2022-08-18T16:19:06.877Z,22.75
2022-08-18T16:24:10.453Z,24.73
2022-08-18T16:29:14.563Z,25.95
2022-08-18T16:34:17.400Z,21.98
2022-08-18T16:39:20.126Z,22.27
2022-08-18T16:44:24.870Z,28.70
2022-08-18T16:49:27.618Z,32.13
2022-08-18T16:54:30.423Z,29.20
2022-08-18T16:59:52.144Z,29.17
2022-08-18T17:04:55.079Z,25.92
2022-08-18T17:09:58.742Z,24.27
2022-08-18T17:15:02.788Z,24.80
2022-08-18T17:20:11.011Z,27.70
2022-08-18T17:25:21.185Z,23.67
2022-08-18T17:30:31.758Z,26.65
2022-08-18T17:35:37.474Z,30.17
2022-08-18T17:40:44.007Z,31.77
2022-08-18T17:45:55.485Z,25.83
2022-08-18T17:51:22.576Z,31.00
2022-08-18T17:56:35.451Z,28.65
2022-08-18T18:01:42.521Z,27.83
2022-08-18T18:11:52.431Z,31.20
2022-08-18T18:17:12.779Z,36.35
2022-08-18T18:22:21.449Z,27.13
2022-08-18T18:27:27.929Z,28.10
2022-08-18T18:32:38.363Z,30.20
2022-08-18T18:37:47.284Z,31.65
2022-08-18T18:42:50.584Z,26.52
2022-08-18T18:48:04.400Z,33.20
2022-08-18T18:53:24.026Z,28.08
2022-08-18T18:58:37.801Z,26.80
2022-08-18T19:03:50.480Z,26.65
2022-08-18T19:09:03.650Z,28.67
2022-08-18T19:14:13.912Z,26.45
2022-08-18T19:19:38.045Z,25.40
2022-08-18T19:24:51.805Z,29.85
2022-08-18T19:30:00.170Z,25.80
2022-08-18T19:35:11.916Z,26.85
2022-08-18T19:40:20.218Z,35.20
2022-08-18T19:45:32.412Z,33.80
2022-08-18T19:50:42.217Z,29.25
2022-08-18T19:56:10.787Z,31.70
2022-08-18T20:01:23.718Z,23.33
2022-08-18T20:06:51.995Z,24.52
2022-08-18T20:12:06.811Z,24.00
2022-08-18T20:17:18.923Z,24.50
2022-08-18T20:22:36.251Z,23.92
2022-08-18T20:27:41.039Z,28.20
2022-08-18T20:32:43.823Z,29.45
2022-08-18T20:37:47.937Z,25.83
2022-08-18T20:43:06.546Z,27.55
2022-08-18T20:48:30.605Z,25.80
2022-08-18T20:53:58.302Z,29.13
2022-08-18T20:59:08.911Z,27.45
2022-08-18T21:04:11.892Z,29.58
2022-08-18T21:09:19.331Z,29.05
2022-08-18T21:14:28.708Z,29.27
2022-08-18T21:19:42.054Z,27.73
2022-08-18T21:24:49.890Z,28.48
2022-08-18T21:29:53.993Z,29.92
2022-08-18T21:34:56.946Z,35.25
2022-08-18T21:40:04.056Z,36.95
2022-08-18T21:50:14.690Z,34.33
2022-08-18T21:55:25.026Z,29.13
2022-08-18T22:00:29.769Z,37.72
2022-08-18T22:05:59.057Z,33.10
2022-08-18T22:11:59.746Z,34.45
2022-08-18T22:17:27.437Z,39.47
2022-08-18T22:22:48.769Z,36.30
2022-08-18T22:27:53.544Z,35.35
2022-08-18T22:32:56.351Z,39.88
2022-08-18T22:38:00.670Z,35.88
2022-08-18T22:43:04.967Z,39.72
2022-08-18T22:48:07.711Z,35.47
2022-08-18T22:53:10.676Z,39.05
2022-08-18T22:58:15.985Z,35.45
2022-08-18T23:03:23.988Z,36.88
2022-08-18T23:08:38.294Z,38.40
2022-08-18T23:13:52.530Z,43.65
2022-08-18T23:18:55.537Z,39.17
2022-08-18T23:23:58.255Z,41.00
2022-08-18T23:29:02.387Z,40.03
2022-08-18T23:34:05.755Z,45.72
2022-08-18T23:39:08.488Z,46.35
2022-08-18T23:44:13.749Z,42.05
2022-08-18T23:49:18.777Z,46.47
2022-08-18T23:54:23.502Z,39.60
2022-08-18T23:59:29.054Z,42.58
